createdAt,value
2024-02-08T00:00:30.128Z,1.92
2024-02-08T00:02:58.793Z,2.35
2024-02-08T00:05:28.424Z,3.00
2024-02-08T00:07:56.883Z,2.10
2024-02-08T00:10:44.457Z,2.92
2024-02-08T00:13:14.590Z,2.63
2024-02-08T00:15:42.923Z,2.47
2024-02-08T00:18:11.044Z,2.38
2024-02-08T00:20:39.111Z,2.13
2024-02-08T00:23:09.681Z,1.83
2024-02-08T00:25:37.873Z,2.85
2024-02-08T00:28:05.915Z,1.95
2024-02-08T00:30:54.652Z,3.08
2024-02-08T00:33:25.669Z,3.20
2024-02-08T00:35:54.053Z,2.95
2024-02-08T00:38:22.165Z,2.47
2024-02-08T00:40:52.696Z,2.88
2024-02-08T00:46:07.926Z,2.85
2024-02-08T00:48:36.091Z,3.03
2024-02-08T00:51:04.221Z,1.75
2024-02-08T00:53:32.766Z,2.92
2024-02-08T00:56:00.829Z,2.47
2024-02-08T00:58:48.638Z,1.92
2024-02-08T01:01:19.275Z,2.45
2024-02-08T01:03:47.830Z,2.78
2024-02-08T01:06:15.993Z,2.40
2024-02-08T01:08:44.038Z,2.55
2024-02-08T01:11:12.121Z,3.05
2024-02-08T01:13:40.317Z,1.67
2024-02-08T01:16:08.449Z,2.50
2024-02-08T01:18:36.669Z,2.90
2024-02-08T01:21:04.680Z,2.60
2024-02-08T01:23:32.675Z,4.22
2024-02-08T01:26:00.884Z,2.85
2024-02-08T01:28:47.623Z,3.03
2024-02-08T01:31:15.681Z,2.45
2024-02-08T01:33:45.953Z,2.22
2024-02-08T01:36:14.823Z,3.03
2024-02-08T01:38:43.624Z,2.15
2024-02-08T01:41:11.655Z,2.60
2024-02-08T01:43:39.712Z,2.38
2024-02-08T01:46:10.177Z,2.58
2024-02-08T01:48:46.623Z,2.03
2024-02-08T01:51:14.857Z,2.70
2024-02-08T01:53:45.497Z,3.30
2024-02-08T01:56:14.174Z,3.42
2024-02-08T01:58:45.815Z,2.72
2024-02-08T02:01:23.920Z,2.67
2024-02-08T02:03:52.172Z,2.83
2024-02-08T02:06:20.608Z,3.20
2024-02-08T02:08:59.368Z,2.63
2024-02-08T02:11:59.681Z,2.97
2024-02-08T02:14:31.085Z,2.05
2024-02-08T02:17:20.425Z,2.08
2024-02-08T02:19:48.679Z,2.47
2024-02-08T02:22:21.351Z,2.80
2024-02-08T02:24:52.560Z,3.45
2024-02-08T02:27:20.670Z,2.65
2024-02-08T02:29:54.687Z,2.67
2024-02-08T02:32:23.168Z,3.63
2024-02-08T02:34:54.984Z,3.42
2024-02-08T02:37:24.279Z,3.35
2024-02-08T02:39:54.446Z,2.03
2024-02-08T02:42:22.914Z,2.20
2024-02-08T02:44:50.960Z,3.00
2024-02-08T02:47:27.302Z,2.53
2024-02-08T02:49:56.722Z,2.95
2024-02-08T02:52:43.557Z,2.25
2024-02-08T02:55:11.588Z,3.38
2024-02-08T02:57:42.686Z,2.55
2024-02-08T03:00:25.707Z,2.38
2024-02-08T03:02:59.090Z,3.10
2024-02-08T03:05:27.218Z,3.33
2024-02-08T03:07:55.403Z,2.40
2024-02-08T03:10:24.405Z,2.33
2024-02-08T03:12:53.172Z,3.67
2024-02-08T03:15:21.262Z,2.63
2024-02-08T03:17:49.508Z,3.05
2024-02-08T03:20:47.597Z,2.33
2024-02-08T03:23:15.758Z,3.75
2024-02-08T03:25:44.083Z,2.55
2024-02-08T03:28:30.756Z,2.38
2024-02-08T03:33:46.982Z,2.58
2024-02-08T03:36:15.072Z,3.30
2024-02-08T03:38:43.109Z,2.72
2024-02-08T03:41:11.300Z,2.20
2024-02-08T03:43:39.866Z,3.00
2024-02-08T03:46:09.225Z,3.10
2024-02-08T03:48:38.624Z,3.50
2024-02-08T03:51:07.034Z,3.83
2024-02-08T03:53:38.596Z,3.42
2024-02-08T03:56:08.191Z,3.22
2024-02-08T03:58:38.109Z,3.22
2024-02-08T04:01:10.413Z,2.40
2024-02-08T04:04:03.399Z,3.80
2024-02-08T04:07:00.217Z,3.28
2024-02-08T04:09:38.043Z,2.83
2024-02-08T04:12:25.067Z,2.42
2024-02-08T04:15:11.595Z,3.05
2024-02-08T04:17:58.263Z,2.40
2024-02-08T04:20:44.624Z,3.50
2024-02-08T04:23:33.930Z,3.03
2024-02-08T04:26:39.852Z,2.72
2024-02-08T04:29:26.446Z,2.47
2024-02-08T04:32:32.047Z,2.92
2024-02-08T04:35:20.411Z,3.15
2024-02-08T04:38:07.146Z,2.42
2024-02-08T04:40:53.477Z,2.55
2024-02-08T04:43:58.844Z,2.20
2024-02-08T04:46:46.242Z,3.30
2024-02-08T04:49:33.988Z,3.10
2024-02-08T04:52:20.725Z,3.45
2024-02-08T04:54:48.725Z,2.53
2024-02-08T04:57:16.690Z,4.13
2024-02-08T04:59:46.935Z,3.92
2024-02-08T05:02:15.881Z,3.83
2024-02-08T05:04:51.072Z,3.60
2024-02-08T05:07:20.069Z,3.42
2024-02-08T05:09:48.326Z,3.45
2024-02-08T05:12:16.291Z,3.30
2024-02-08T05:14:44.333Z,2.75
2024-02-08T05:17:15.290Z,3.90
2024-02-08T05:19:45.868Z,3.20
2024-02-08T05:22:15.302Z,3.40
2024-02-08T05:24:43.622Z,3.25
2024-02-08T05:27:32.542Z,4.22
2024-02-08T05:30:00.585Z,3.38
2024-02-08T05:32:47.814Z,4.18
2024-02-08T05:35:20.758Z,2.92
2024-02-08T05:37:49.007Z,3.35
2024-02-08T05:40:17.042Z,4.25
2024-02-08T05:42:45.049Z,3.67
2024-02-08T05:45:21.978Z,4.50
2024-02-08T05:47:50.039Z,3.70
2024-02-08T05:50:24.087Z,3.17
2024-02-08T05:52:58.630Z,4.47
2024-02-08T05:55:26.983Z,3.05
2024-02-08T05:57:55.237Z,3.42
2024-02-08T06:00:39.159Z,3.53
2024-02-08T06:03:07.441Z,4.22
2024-02-08T06:05:35.946Z,2.78
2024-02-08T06:08:04.588Z,3.05
2024-02-08T06:10:46.858Z,3.78
2024-02-08T06:16:15.839Z,3.97
2024-02-08T06:18:46.996Z,3.50
2024-02-08T06:24:15.793Z,4.25
2024-02-08T06:26:45.157Z,3.38
2024-02-08T06:29:20.433Z,3.90
2024-02-08T06:31:52.320Z,4.38
2024-02-08T06:34:23.471Z,4.00
2024-02-08T06:37:00.590Z,3.58
2024-02-08T06:39:46.084Z,3.53
2024-02-08T06:42:33.629Z,4.55
2024-02-08T06:45:20.141Z,4.15
2024-02-08T06:51:23.989Z,3.58
2024-02-08T06:54:11.217Z,3.03
2024-02-08T06:56:58.470Z,3.80
2024-02-08T06:59:45.432Z,4.47
2024-02-08T07:02:32.412Z,3.13
2024-02-08T07:05:19.113Z,4.82
2024-02-08T07:08:05.752Z,3.88
2024-02-08T07:14:15.060Z,4.43
2024-02-08T07:17:01.393Z,4.85
2024-02-08T07:19:47.643Z,3.85
2024-02-08T07:22:34.315Z,4.57
2024-02-08T07:25:20.826Z,4.13
2024-02-08T07:28:07.700Z,3.38
2024-02-08T07:30:57.894Z,4.97
2024-02-08T07:33:44.768Z,4.07
2024-02-08T07:36:50.082Z,4.10
2024-02-08T07:39:36.763Z,4.15
2024-02-08T07:42:21.671Z,4.97
2024-02-08T07:44:56.569Z,5.78
2024-02-08T07:47:29.002Z,4.47
2024-02-08T07:49:59.814Z,5.07
2024-02-08T07:52:31.311Z,4.78
2024-02-08T07:55:28.731Z,4.03
2024-02-08T07:57:59.776Z,4.20
2024-02-08T08:03:17.886Z,4.28
2024-02-08T08:05:47.047Z,3.70
2024-02-08T08:08:34.527Z,4.63
2024-02-08T08:11:07.206Z,3.53
2024-02-08T08:13:52.050Z,4.45
2024-02-08T08:16:33.361Z,3.83
2024-02-08T08:19:09.947Z,3.15
2024-02-08T08:22:01.988Z,3.95
2024-02-08T08:24:30.170Z,5.40
2024-02-08T08:27:27.875Z,4.28
2024-02-08T08:30:00.385Z,4.85
2024-02-08T08:32:31.563Z,4.18
2024-02-08T08:35:36.946Z,3.65
2024-02-08T08:38:22.055Z,3.95
2024-02-08T08:40:51.526Z,4.18
2024-02-08T08:43:26.552Z,4.93
2024-02-08T08:46:11.318Z,4.53
2024-02-08T08:48:40.355Z,3.55
2024-02-08T08:54:16.148Z,4.60
2024-02-08T08:56:44.673Z,5.10
2024-02-08T08:59:13.136Z,4.68
2024-02-08T09:01:42.539Z,4.30
2024-02-08T09:04:12.174Z,5.35
2024-02-08T09:06:44.047Z,4.97
2024-02-08T09:09:39.554Z,4.65
2024-02-08T09:12:09.381Z,6.85
2024-02-08T09:14:42.079Z,4.47
2024-02-08T09:17:24.466Z,5.97
2024-02-08T09:19:54.116Z,5.63
2024-02-08T09:22:22.310Z,5.22
2024-02-08T09:24:52.357Z,5.30
2024-02-08T09:27:27.009Z,4.60
2024-02-08T09:29:58.213Z,6.22
2024-02-08T09:35:14.772Z,5.65
2024-02-08T09:37:48.787Z,6.22
2024-02-08T09:40:30.221Z,5.82
2024-02-08T09:43:18.493Z,5.28
2024-02-08T09:46:03.062Z,5.68
2024-02-08T09:48:38.892Z,5.88
2024-02-08T09:51:14.922Z,6.78
2024-02-08T09:53:53.591Z,5.97
2024-02-08T09:56:40.780Z,6.20
2024-02-08T09:59:11.406Z,5.60
2024-02-08T10:01:46.868Z,5.10
2024-02-08T10:04:21.020Z,6.10
2024-02-08T10:06:57.843Z,5.68
2024-02-08T10:09:38.383Z,5.50
2024-02-08T10:12:10.114Z,6.43
2024-02-08T10:14:43.918Z,6.53
2024-02-08T10:20:22.513Z,6.65
2024-02-08T10:23:23.566Z,6.32
2024-02-08T10:26:17.359Z,7.15
2024-02-08T10:28:48.497Z,6.53
2024-02-08T10:31:29.698Z,7.65
2024-02-08T10:34:11.572Z,6.80
2024-02-08T10:36:47.166Z,6.90
2024-02-08T10:39:28.289Z,6.80
2024-02-08T10:41:59.905Z,5.93
2024-02-08T10:44:39.190Z,5.78
2024-02-08T10:47:10.900Z,6.18
2024-02-08T10:49:59.594Z,5.25
2024-02-08T10:52:35.762Z,7.97
2024-02-08T10:55:20.164Z,8.45
2024-02-08T10:58:07.043Z,7.13
2024-02-08T11:04:23.556Z,5.95
2024-02-08T11:06:56.723Z,6.78
2024-02-08T11:09:28.918Z,7.20
2024-02-08T11:12:10.411Z,7.28
2024-02-08T11:14:44.545Z,7.65
2024-02-08T11:17:23.480Z,8.57
2024-02-08T11:20:00.194Z,7.88
2024-02-08T11:25:40.470Z,8.27
2024-02-08T11:31:14.225Z,9.32
2024-02-08T11:33:43.897Z,8.32
2024-02-08T11:39:23.107Z,8.55
2024-02-08T11:41:51.414Z,7.88
2024-02-08T11:44:30.372Z,7.28
2024-02-08T11:47:21.258Z,5.80
2024-02-08T11:49:54.463Z,6.32
2024-02-08T11:52:25.633Z,6.78
2024-02-08T11:55:10.180Z,6.28
2024-02-08T11:57:58.569Z,9.18
2024-02-08T12:00:27.177Z,7.40
2024-02-08T12:03:03.387Z,7.32
2024-02-08T12:05:58.870Z,6.78
2024-02-08T12:08:34.386Z,7.15
2024-02-08T12:11:08.889Z,7.68
2024-02-08T12:13:41.136Z,6.45
2024-02-08T12:16:09.475Z,6.53
2024-02-08T12:18:38.583Z,8.80
2024-02-08T12:21:13.126Z,6.68
2024-02-08T12:23:42.541Z,7.90
2024-02-08T12:26:13.719Z,8.00
2024-02-08T12:28:44.454Z,8.20
2024-02-08T12:31:19.843Z,9.43
2024-02-08T12:33:53.921Z,7.53
2024-02-08T12:36:25.063Z,6.93
2024-02-08T12:41:41.424Z,8.70
2024-02-08T12:44:10.456Z,7.43
2024-02-08T12:46:39.589Z,8.63
2024-02-08T12:49:08.915Z,6.38
2024-02-08T12:51:41.334Z,8.02
2024-02-08T12:54:10.439Z,7.10
2024-02-08T12:56:40.618Z,8.52
2024-02-08T12:59:08.786Z,8.45
2024-02-08T13:01:46.132Z,7.50
2024-02-08T13:04:19.143Z,8.65
2024-02-08T13:06:54.088Z,7.40
2024-02-08T13:12:21.181Z,8.35
2024-02-08T13:14:52.404Z,8.30
2024-02-08T13:17:22.215Z,8.88
2024-02-08T13:19:57.462Z,7.25
2024-02-08T13:22:33.061Z,7.90
2024-02-08T13:25:01.336Z,8.30
2024-02-08T13:27:35.173Z,8.45
2024-02-08T13:30:03.317Z,8.20
2024-02-08T13:32:32.844Z,8.38
2024-02-08T13:35:04.682Z,8.43
2024-02-08T13:37:36.654Z,6.90
2024-02-08T13:40:05.960Z,8.15
2024-02-08T13:42:47.440Z,9.93
2024-02-08T13:45:27.395Z,8.55
2024-02-08T13:47:59.482Z,9.75
2024-02-08T13:50:48.472Z,9.00
2024-02-08T13:53:17.195Z,8.88
2024-02-08T13:55:56.015Z,8.40
2024-02-08T13:58:27.509Z,8.25
2024-02-08T14:00:56.820Z,8.48
2024-02-08T14:03:26.178Z,7.90
2024-02-08T14:06:13.335Z,8.40
2024-02-08T14:08:48.466Z,9.18
2024-02-08T14:11:20.886Z,10.02
2024-02-08T14:13:52.319Z,9.23
2024-02-08T14:16:39.129Z,8.32
2024-02-08T14:19:07.263Z,9.10
2024-02-08T14:21:42.429Z,10.60
2024-02-08T14:24:13.094Z,9.18
2024-02-08T14:26:44.909Z,10.70
2024-02-08T14:29:14.598Z,10.52
2024-02-08T14:31:43.357Z,11.23
2024-02-08T14:34:12.938Z,9.85
2024-02-08T14:39:29.247Z,9.75
2024-02-08T14:42:00.368Z,9.30
2024-02-08T14:44:43.611Z,8.05
2024-02-08T14:47:32.873Z,7.15
2024-02-08T14:50:02.499Z,7.30
2024-02-08T14:52:45.936Z,7.70
2024-02-08T14:55:23.647Z,9.02
2024-02-08T14:58:01.133Z,7.20
2024-02-08T15:00:32.737Z,9.52
2024-02-08T15:03:11.233Z,8.90
2024-02-08T15:06:02.909Z,10.32
2024-02-08T15:08:31.472Z,10.52
2024-02-08T15:11:10.418Z,11.40
2024-02-08T15:16:33.345Z,10.95
2024-02-08T15:19:01.783Z,10.07
2024-02-08T15:21:39.121Z,10.48
2024-02-08T15:27:01.330Z,10.55
2024-02-08T15:29:35.099Z,10.75
2024-02-08T15:32:06.756Z,10.45
2024-02-08T15:35:03.842Z,10.13
2024-02-08T15:37:43.766Z,12.23
2024-02-08T15:40:16.336Z,10.02
2024-02-08T15:42:44.941Z,12.18
2024-02-08T15:45:31.797Z,11.50
2024-02-08T15:48:03.969Z,10.35
2024-02-08T15:50:58.974Z,11.55
2024-02-08T15:53:28.963Z,9.38
2024-02-08T15:56:00.263Z,11.60
2024-02-08T16:01:16.129Z,9.13
2024-02-08T16:04:06.219Z,11.07
2024-02-08T16:06:43.353Z,11.35
2024-02-08T16:12:15.580Z,11.23
2024-02-08T16:14:45.064Z,11.02
2024-02-08T16:17:38.985Z,11.93
2024-02-08T16:20:16.111Z,10.23
2024-02-08T16:22:56.080Z,10.32
2024-02-08T16:25:46.751Z,11.18
2024-02-08T16:28:39.206Z,12.07
2024-02-08T16:31:19.823Z,10.90
2024-02-08T16:34:11.129Z,10.65
2024-02-08T16:36:46.544Z,10.65
2024-02-08T16:39:14.597Z,10.18
2024-02-08T16:42:11.166Z,10.13
2024-02-08T16:44:52.454Z,10.50
2024-02-08T16:47:35.996Z,10.18
2024-02-08T16:50:19.406Z,10.80
2024-02-08T16:52:49.669Z,10.43
2024-02-08T16:55:24.275Z,10.88
2024-02-08T16:58:02.977Z,11.20
2024-02-08T17:01:20.810Z,9.57
2024-02-08T17:03:52.760Z,9.45
2024-02-08T17:06:45.585Z,11.63
2024-02-08T17:09:13.935Z,10.10
2024-02-08T17:11:46.733Z,9.73
2024-02-08T17:14:33.259Z,8.77
2024-02-08T17:17:07.713Z,11.27
2024-02-08T17:19:35.884Z,10.65
2024-02-08T17:22:06.981Z,11.55
2024-02-08T17:24:41.474Z,10.05
2024-02-08T17:27:30.623Z,10.93
2024-02-08T17:30:17.541Z,9.45
2024-02-08T17:32:45.666Z,11.38
2024-02-08T17:35:17.785Z,11.95
2024-02-08T17:38:04.635Z,10.07
2024-02-08T17:40:32.872Z,10.82
2024-02-08T17:43:01.872Z,9.93
2024-02-08T17:45:47.982Z,12.52
2024-02-08T17:48:16.619Z,9.73
2024-02-08T17:51:08.927Z,10.02
2024-02-08T17:53:40.576Z,9.45
2024-02-08T17:58:40.506Z,7.55
2024-02-08T18:01:17.132Z,9.38
2024-02-08T18:03:47.969Z,9.48
2024-02-08T18:06:18.633Z,9.52
2024-02-08T18:08:48.797Z,10.20
2024-02-08T18:11:17.959Z,9.38
2024-02-08T18:13:46.563Z,9.00
2024-02-08T18:16:15.627Z,9.55
2024-02-08T18:18:43.974Z,9.80
2024-02-08T18:21:35.456Z,11.02
2024-02-08T18:24:07.674Z,9.93
2024-02-08T18:26:36.866Z,9.88
2024-02-08T18:29:05.337Z,10.27
2024-02-08T18:31:34.323Z,9.45
2024-02-08T18:34:03.970Z,12.40
2024-02-08T18:36:32.222Z,10.93
2024-02-08T18:39:00.304Z,9.88
2024-02-08T18:41:28.575Z,10.68
2024-02-08T18:43:56.702Z,9.48
2024-02-08T18:46:29.386Z,11.23
2024-02-08T18:48:58.073Z,8.52
2024-02-08T18:51:26.808Z,9.20
2024-02-08T18:53:57.390Z,9.20
2024-02-08T18:56:26.913Z,9.95
2024-02-08T18:58:55.270Z,10.50
2024-02-08T19:01:27.030Z,9.65
2024-02-08T19:03:55.535Z,8.43
2024-02-08T19:06:28.203Z,7.93
2024-02-08T19:08:56.850Z,9.98
2024-02-08T19:11:25.019Z,11.45
2024-02-08T19:14:11.459Z,10.50
2024-02-08T19:16:43.867Z,8.32
2024-02-08T19:19:12.882Z,9.75
2024-02-08T19:21:59.427Z,8.05
2024-02-08T19:24:30.303Z,8.63
2024-02-08T19:27:16.522Z,8.43
2024-02-08T19:29:47.789Z,8.52
2024-02-08T19:32:20.704Z,6.72
2024-02-08T19:34:55.922Z,8.32
2024-02-08T19:37:42.384Z,6.97
2024-02-08T19:40:31.294Z,8.57
2024-02-08T19:43:04.902Z,7.15
2024-02-08T19:45:33.272Z,7.32
2024-02-08T19:48:02.161Z,7.65
2024-02-08T19:50:30.594Z,6.55
2024-02-08T19:52:59.839Z,6.85
2024-02-08T19:55:31.258Z,6.90
2024-02-08T19:58:00.705Z,8.20
2024-02-08T20:03:28.518Z,7.28
2024-02-08T20:05:56.829Z,6.15
2024-02-08T20:08:24.960Z,6.28
2024-02-08T20:10:53.039Z,5.72
2024-02-08T20:13:25.963Z,4.57
2024-02-08T20:15:54.496Z,5.38
2024-02-08T20:18:22.761Z,6.55
2024-02-08T20:20:53.744Z,6.70
2024-02-08T20:23:23.655Z,6.22
2024-02-08T20:25:55.971Z,7.00
2024-02-08T20:28:24.517Z,5.90
2024-02-08T20:30:58.350Z,5.95
2024-02-08T20:33:32.744Z,5.53
2024-02-08T20:36:02.281Z,5.63
2024-02-08T20:38:32.544Z,5.80
2024-02-08T20:41:00.789Z,6.15
2024-02-08T20:43:28.902Z,6.00
2024-02-08T20:46:01.243Z,5.53
2024-02-08T20:48:30.604Z,7.00
2024-02-08T20:50:59.234Z,6.25
2024-02-08T20:53:28.680Z,6.15
2024-02-08T20:55:57.435Z,4.93
2024-02-08T20:58:26.207Z,7.15
2024-02-08T21:00:54.531Z,5.10
2024-02-08T21:03:28.260Z,6.75
2024-02-08T21:06:15.246Z,5.63
2024-02-08T21:08:44.518Z,5.30
2024-02-08T21:11:13.358Z,5.32
2024-02-08T21:13:49.395Z,6.35
2024-02-08T21:16:21.427Z,5.32
2024-02-08T21:18:52.589Z,5.57
2024-02-08T21:21:20.971Z,4.75
2024-02-08T21:23:49.665Z,5.93
2024-02-08T21:26:38.668Z,5.57
2024-02-08T21:29:06.828Z,5.40
2024-02-08T21:31:35.021Z,5.35
2024-02-08T21:34:03.438Z,6.40
2024-02-08T21:36:31.508Z,4.25
2024-02-08T21:38:59.645Z,6.43
2024-02-08T21:41:48.070Z,5.25
2024-02-08T21:44:16.380Z,5.45
2024-02-08T21:46:44.457Z,4.70
2024-02-08T21:49:30.925Z,4.30
2024-02-08T21:54:44.565Z,5.63
2024-02-08T21:57:16.293Z,4.35
2024-02-08T21:59:44.488Z,5.82
2024-02-08T22:02:12.573Z,5.00
2024-02-08T22:04:41.109Z,5.45
2024-02-08T22:07:09.508Z,5.97
2024-02-08T22:09:37.727Z,4.53
2024-02-08T22:15:10.391Z,4.03
2024-02-08T22:17:38.736Z,7.35
2024-02-08T22:20:26.059Z,5.18
2024-02-08T22:22:55.275Z,5.43
2024-02-08T22:25:24.750Z,4.60
2024-02-08T22:27:56.119Z,4.82
2024-02-08T22:30:24.371Z,4.70
2024-02-08T22:32:54.029Z,4.28
2024-02-08T22:35:22.238Z,6.10
2024-02-08T22:37:50.432Z,6.28
2024-02-08T22:40:20.513Z,4.80
2024-02-08T22:42:49.395Z,6.43
2024-02-08T22:45:22.663Z,5.38
2024-02-08T22:47:51.913Z,4.45
2024-02-08T22:50:23.619Z,5.38
2024-02-08T22:53:14.104Z,6.03
2024-02-08T22:55:43.766Z,5.72
2024-02-08T22:58:14.710Z,5.72
2024-02-08T23:01:00.160Z,5.20
2024-02-08T23:06:16.565Z,5.40
2024-02-08T23:08:45.105Z,3.55
2024-02-08T23:11:13.193Z,5.55
2024-02-08T23:13:43.602Z,5.28
2024-02-08T23:16:11.617Z,7.00
2024-02-08T23:18:40.709Z,5.07
2024-02-08T23:21:08.823Z,6.30
2024-02-08T23:23:40.034Z,4.47
2024-02-08T23:26:08.282Z,6.05
2024-02-08T23:28:36.901Z,5.68
2024-02-08T23:31:10.206Z,5.72
2024-02-08T23:33:38.569Z,6.07
2024-02-08T23:36:08.486Z,6.80
2024-02-08T23:38:36.534Z,5.35
2024-02-08T23:41:08.478Z,5.57
2024-02-08T23:43:39.197Z,5.22
2024-02-08T23:46:09.305Z,6.75
2024-02-08T23:48:40.834Z,6.43
2024-02-08T23:51:09.348Z,6.70
2024-02-08T23:53:38.215Z,6.72
2024-02-08T23:56:09.945Z,6.00
2024-02-08T23:58:38.342Z,5.55
